Time;durP1;ratioP1;P1;durP2;ratioP2;P2;SDS_P1;SDS_P2;PMS_P1;PMS_P2;Temp;Humidity;BMP_temperature;BMP_pressure;BME280_temperature;BME280_humidity;BME280_pressure;Samples;Min_cycle;Max_cycle;Signal;HPM_P1;HPM_P2
2021/04/28 00:03:07;;;;;;;;;;;6.00;62.70;;;;;;10454076;28;19956;-66
2021/04/28 00:08:08;;;;;;;;;;;5.90;64.40;;;;;;10453974;28;20019;-67
2021/04/28 00:13:12;;;;;;;;;;;5.80;66.00;;;;;;10452045;28;20059;-67
2021/04/28 00:18:14;;;;;;;;;;;5.70;68.90;;;;;;10452673;28;19964;-67
2021/04/28 00:23:16;;;;;;;;;;;5.70;70.80;;;;;;10453368;28;20293;-67
2021/04/28 00:28:17;;;;;;;;;;;5.60;73.20;;;;;;10452348;28;19929;-66
2021/04/28 00:33:18;;;;;;;;;;;5.50;78.40;;;;;;10452246;28;19928;-66
2021/04/28 00:38:20;;;;;;;;;;;5.30;84.30;;;;;;10452499;28;20285;-66
2021/04/28 00:43:25;;;;;;;;;;;5.30;86.70;;;;;;10451190;28;19963;-66
2021/04/28 00:48:26;;;;;;;;;;;5.30;90.30;;;;;;10449979;28;20337;-67
2021/04/28 00:53:28;;;;;;;;;;;5.20;92.00;;;;;;10435747;28;20374;-67
2021/04/28 00:58:29;;;;;;;;;;;5.10;94.20;;;;;;10448145;28;19994;-67
2021/04/28 01:03:30;;;;;;;;;;;4.80;97.10;;;;;;10448965;28;19967;-67
2021/04/28 01:08:33;;;;;;;;;;;4.80;99.10;;;;;;10447359;28;20384;-67
2021/04/28 01:13:34;;;;;;;;;;;4.80;99.90;;;;;;10447559;28;19979;-67
2021/04/28 01:18:36;;;;;;;;;;;4.70;99.90;;;;;;10448528;28;20003;-67
2021/04/28 01:23:37;;;;;;;;;;;4.70;99.90;;;;;;10448750;28;19968;-67
2021/04/28 01:28:39;;;;;;;;;;;4.70;99.90;;;;;;10447365;28;19931;-66
2021/04/28 01:33:45;;;;;;;;;;;4.60;99.90;;;;;;10447951;28;20023;-67
2021/04/28 01:38:49;;;;;;;;;;;4.50;99.90;;;;;;10447541;28;20447;-66
2021/04/28 01:43:51;;;;;;;;;;;4.40;99.90;;;;;;10448008;28;20023;-67
2021/04/28 01:48:52;;;;;;;;;;;4.40;99.90;;;;;;10400153;28;1346707;-66
2021/04/28 01:53:55;;;;;;;;;;;4.20;99.90;;;;;;10449713;28;20429;-67
2021/04/28 01:58:57;;;;;;;;;;;4.30;99.90;;;;;;10447924;28;20011;-67
2021/04/28 02:03:58;;;;;;;;;;;4.30;99.90;;;;;;10453954;28;19999;-67
2021/04/28 02:09:00;;;;;;;;;;;4.20;99.90;;;;;;10455709;28;20432;-67
2021/04/28 02:14:02;;;;;;;;;;;4.10;99.90;;;;;;10454850;28;19960;-66
2021/04/28 02:19:04;;;;;;;;;;;4.10;99.90;;;;;;10454956;28;19964;-67
2021/04/28 02:24:07;;;;;;;;;;;4.00;99.90;;;;;;10455189;28;20011;-67
2021/04/28 02:29:09;;;;;;;;;;;4.00;99.90;;;;;;10454326;28;20039;-67
2021/04/28 02:34:10;;;;;;;;;;;4.00;99.90;;;;;;10455217;28;19971;-67
2021/04/28 02:39:17;;;;;;;;;;;4.00;99.90;;;;;;10454615;28;20031;-67
2021/04/28 02:44:20;;;;;;;;;;;4.00;99.90;;;;;;10454072;28;20011;-67
2021/04/28 02:49:22;;;;;;;;;;;3.90;99.90;;;;;;10452612;28;19925;-67
2021/04/28 02:54:23;;;;;;;;;;;3.80;99.90;;;;;;10454426;28;20228;-66
2021/04/28 02:59:25;;;;;;;;;;;3.70;99.90;;;;;;10453567;28;19963;-66
2021/04/28 03:04:27;;;;;;;;;;;3.70;99.90;;;;;;10449939;28;20354;-67
2021/04/28 03:09:28;;;;;;;;;;;3.70;99.90;;;;;;10448487;28;20024;-66
2021/04/28 03:14:29;;;;;;;;;;;3.60;99.90;;;;;;10444946;28;19971;-67
2021/04/28 03:19:31;;;;;;;;;;;3.60;99.90;;;;;;10446837;28;19960;-66
2021/04/28 03:24:32;;;;;;;;;;;3.40;99.90;;;;;;10445231;28;19925;-66
2021/04/28 03:29:33;;;;;;;;;;;3.30;99.90;;;;;;10445521;28;20402;-67
2021/04/28 03:34:35;;;;;;;;;;;3.30;99.90;;;;;;10446038;28;19960;-67
2021/04/28 03:39:38;;;;;;;;;;;3.30;99.90;;;;;;10445097;28;19964;-67
2021/04/28 03:44:39;;;;;;;;;;;3.30;99.90;;;;;;10444418;28;19974;-66
2021/04/28 03:49:40;;;;;;;;;;;3.20;99.90;;;;;;10445611;28;19928;-67
2021/04/28 03:54:41;;;;;;;;;;;3.10;99.90;;;;;;10445445;28;19979;-67
2021/04/28 03:59:43;;;;;;;;;;;3.10;99.90;;;;;;10444608;28;20397;-67
2021/04/28 04:04:44;;;;;;;;;;;3.10;99.90;;;;;;10444948;28;19931;-67
2021/04/28 04:09:46;;;;;;;;;;;3.00;99.90;;;;;;10444267;28;19925;-67
2021/04/28 04:14:47;;;;;;;;;;;3.00;99.90;;;;;;10444412;28;19968;-67
2021/04/28 04:19:50;;;;;;;;;;;3.10;99.90;;;;;;10444945;28;19975;-67
2021/04/28 04:24:52;;;;;;;;;;;2.80;99.90;;;;;;10444953;28;19964;-67
2021/04/28 04:29:53;;;;;;;;;;;2.50;99.90;;;;;;10444340;28;19947;-67
2021/04/28 04:34:55;;;;;;;;;;;2.60;99.90;;;;;;10444733;28;20023;-67
2021/04/28 04:39:56;;;;;;;;;;;2.80;99.90;;;;;;10443405;28;19925;-67
2021/04/28 04:44:57;;;;;;;;;;;2.70;99.90;;;;;;10450576;28;20016;-67
2021/04/28 04:49:59;;;;;;;;;;;3.30;99.90;;;;;;10451939;28;19978;-67
2021/04/28 04:55:00;;;;;;;;;;;5.60;99.90;;;;;;10451487;28;20377;-67
2021/04/28 05:00:08;;;;;;;;;;;7.40;99.70;;;;;;10443790;28;19976;-68
2021/04/28 05:05:10;;;;;;;;;;;8.50;93.20;;;;;;10452026;28;19936;-68
2021/04/28 05:10:12;;;;;;;;;;;9.90;79.40;;;;;;10451595;28;20365;-69
2021/04/28 05:15:17;;;;;;;;;;;8.70;76.40;;;;;;10450819;28;19960;-67
2021/04/28 05:20:18;;;;;;;;;;;7.20;85.70;;;;;;10451034;28;20435;-68
2021/04/28 05:25:20;;;;;;;;;;;6.20;93.50;;;;;;10450712;28;19925;-68
2021/04/28 05:30:21;;;;;;;;;;;6.00;97.20;;;;;;10441952;28;20042;-68
2021/04/28 05:35:23;;;;;;;;;;;5.80;98.70;;;;;;10440341;28;20015;-67
2021/04/28 05:40:24;;;;;;;;;;;5.70;99.90;;;;;;10453853;28;19968;-68
2021/04/28 05:45:25;;;;;;;;;;;5.60;99.90;;;;;;10464325;28;20020;-67
2021/04/28 05:50:26;;;;;;;;;;;5.70;99.90;;;;;;10447104;28;20472;-68
2021/04/28 05:55:28;;;;;;;;;;;5.80;99.90;;;;;;10421068;28;20016;-67
2021/04/28 06:00:29;;;;;;;;;;;5.80;99.90;;;;;;10458173;28;20052;-68
2021/04/28 06:05:30;;;;;;;;;;;5.90;99.90;;;;;;10446579;28;20031;-68
2021/04/28 06:10:32;;;;;;;;;;;6.10;99.90;;;;;;10444971;28;20011;-68
2021/04/28 06:15:33;;;;;;;;;;;6.30;99.90;;;;;;10428873;28;20011;-68
2021/04/28 06:20:34;;;;;;;;;;;6.30;99.90;;;;;;10426328;28;20326;-68
2021/04/28 06:25:36;;;;;;;;;;;6.50;99.90;;;;;;10435538;28;19968;-68
2021/04/28 06:30:37;;;;;;;;;;;6.70;97.00;;;;;;10425149;28;20357;-68
2021/04/28 06:35:38;;;;;;;;;;;6.80;93.00;;;;;;10432757;28;19935;-68
2021/04/28 06:40:40;;;;;;;;;;;7.00;93.30;;;;;;10420623;28;20015;-67
2021/04/28 06:45:43;;;;;;;;;;;7.10;93.20;;;;;;10418164;28;19943;-68
2021/04/28 06:50:44;;;;;;;;;;;7.30;90.60;;;;;;10424932;28;20399;-68
2021/04/28 06:55:45;;;;;;;;;;;7.40;88.20;;;;;;10442367;28;19932;-68
2021/04/28 07:00:47;;;;;;;;;;;7.50;88.00;;;;;;10427279;28;19976;-69
2021/04/28 07:05:48;;;;;;;;;;;7.70;84.40;;;;;;10443466;28;19955;-68
2021/04/28 07:10:49;;;;;;;;;;;7.90;81.90;;;;;;10440751;28;19975;-68
2021/04/28 07:15:55;;;;;;;;;;;8.00;78.80;;;;;;10421821;28;19994;-68
2021/04/28 07:20:57;;;;;;;;;;;8.20;78.10;;;;;;10445877;28;19928;-68
2021/04/28 07:25:58;;;;;;;;;;;8.40;77.10;;;;;;10445084;28;19933;-68
2021/04/28 07:30:59;;;;;;;;;;;8.70;73.10;;;;;;10445270;28;20048;-68
2021/04/28 07:36:01;;;;;;;;;;;8.90;71.50;;;;;;10446204;28;20277;-68
2021/04/28 07:41:03;;;;;;;;;;;9.70;68.70;;;;;;10445866;28;19979;-68
2021/04/28 07:46:04;;;;;;;;;;;10.50;63.30;;;;;;10444784;28;20271;-68
2021/04/28 07:51:05;;;;;;;;;;;11.00;59.70;;;;;;10445043;28;19999;-68
2021/04/28 07:56:07;;;;;;;;;;;11.50;58.40;;;;;;10433922;28;20001;-68
2021/04/28 08:01:08;;;;;;;;;;;12.60;55.90;;;;;;10442289;28;19928;-69
2021/04/28 08:06:09;;;;;;;;;;;12.70;54.80;;;;;;10467276;28;19924;-69
2021/04/28 08:11:11;;;;;;;;;;;13.30;52.00;;;;;;10442116;28;20005;-69
2021/04/28 08:16:13;;;;;;;;;;;13.40;50.90;;;;;;10444187;28;19932;-69
2021/04/28 08:21:15;;;;;;;;;;;13.90;50.40;;;;;;10451625;28;19956;-68
2021/04/28 08:26:16;;;;;;;;;;;14.20;49.10;;;;;;10451873;28;20035;-69
2021/04/28 08:31:18;;;;;;;;;;;14.70;46.90;;;;;;10431405;28;20344;-69
2021/04/28 08:36:20;;;;;;;;;;;14.90;46.40;;;;;;10440409;28;20368;-69
2021/04/28 08:41:22;;;;;;;;;;;15.00;46.80;;;;;;10449099;28;19925;-69
2021/04/28 08:46:28;;;;;;;;;;;15.40;46.80;;;;;;10471759;28;20696;-69
2021/04/28 08:51:29;;;;;;;;;;;15.50;44.70;;;;;;10449626;28;20015;-69
2021/04/28 08:56:32;;;;;;;;;;;16.00;45.00;;;;;;10414825;28;19925;-69
2021/04/28 09:01:35;;;;;;;;;;;16.30;44.80;;;;;;10452161;28;19936;-62
2021/04/28 09:06:36;;;;;;;;;;;16.20;43.40;;;;;;10449448;28;19925;-62
2021/04/28 09:11:38;;;;;;;;;;;16.40;42.60;;;;;;10449455;28;19948;-61
2021/04/28 09:16:40;;;;;;;;;;;16.00;42.10;;;;;;10425958;28;19976;-61
2021/04/28 09:21:53;;;;;;;;;;;16.10;43.70;;;;;;10447281;28;19932;-62
2021/04/28 09:26:56;;;;;;;;;;;16.70;42.40;;;;;;10425680;28;19971;-61
2021/04/28 09:31:59;;;;;;;;;;;17.00;42.40;;;;;;10452145;28;19935;-61
2021/04/28 09:37:02;;;;;;;;;;;17.00;42.50;;;;;;10450354;28;19986;-62
2021/04/28 09:42:05;;;;;;;;;;;17.40;41.40;;;;;;10451755;28;19924;-62
2021/04/28 09:47:11;;;;;;;;;;;17.10;41.00;;;;;;10481897;28;19935;-62
2021/04/28 09:52:14;;;;;;;;;;;17.40;41.90;;;;;;10447965;28;19978;-62
2021/04/28 09:57:16;;;;;;;;;;;17.40;40.80;;;;;;10446205;28;19975;-62
2021/04/28 10:02:31;;;;;;;;;;;17.50;42.30;;;;;;10448550;28;19979;-62
2021/04/28 10:07:32;;;;;;;;;;;17.70;42.00;;;;;;10447036;28;19925;-61
2021/04/28 10:12:34;;;;;;;;;;;17.60;41.20;;;;;;10448521;28;19925;-62
2021/04/28 10:17:35;;;;;;;;;;;17.70;42.40;;;;;;10447550;28;19971;-62
2021/04/28 10:22:37;;;;;;;;;;;17.70;42.40;;;;;;10447867;28;19929;-62
2021/04/28 10:27:39;;;;;;;;;;;17.80;42.10;;;;;;10447722;28;19994;-62
2021/04/28 10:32:41;;;;;;;;;;;17.90;42.50;;;;;;10447458;28;19968;-62
2021/04/28 10:37:46;;;;;;;;;;;18.20;42.10;;;;;;10447612;28;19972;-63
2021/04/28 10:42:48;;;;;;;;;;;18.10;42.60;;;;;;10446853;28;19936;-63
2021/04/28 10:47:50;;;;;;;;;;;18.10;41.30;;;;;;10446868;28;20023;-62
2021/04/28 10:52:52;;;;;;;;;;;18.00;42.10;;;;;;10446420;28;19933;-62
2021/04/28 10:57:54;;;;;;;;;;;17.90;44.20;;;;;;10446986;28;20015;-62
2021/04/28 11:02:55;;;;;;;;;;;17.80;44.00;;;;;;10446199;28;19929;-62
2021/04/28 11:07:57;;;;;;;;;;;17.70;44.30;;;;;;10448526;28;19944;-62
2021/04/28 11:13:05;;;;;;;;;;;17.70;43.10;;;;;;10451362;28;19968;-62
2021/04/28 11:18:25;;;;;;;;;;;18.00;42.50;;;;;;10437740;28;19931;-63
2021/04/28 11:23:26;;;;;;;;;;;17.70;42.20;;;;;;10445865;28;19932;-62
2021/04/28 11:28:35;;;;;;;;;;;17.70;43.70;;;;;;10455078;28;20023;-62
2021/04/28 11:33:36;;;;;;;;;;;17.70;43.90;;;;;;10451458;28;20419;-63
2021/04/28 11:38:39;;;;;;;;;;;18.10;42.80;;;;;;10444672;28;19925;-63
2021/04/28 11:43:43;;;;;;;;;;;18.10;43.30;;;;;;10444203;28;19956;-63
2021/04/28 11:48:47;;;;;;;;;;;18.40;42.60;;;;;;10443689;28;19939;-63
2021/04/28 11:54:03;;;;;;;;;;;18.20;41.70;;;;;;10452326;28;20377;-62
2021/04/28 11:59:06;;;;;;;;;;;18.10;42.10;;;;;;10452127;28;20023;-62
2021/04/28 12:04:09;;;;;;;;;;;18.40;41.70;;;;;;10452479;28;20327;-62
2021/04/28 12:09:14;;;;;;;;;;;19.00;43.80;;;;;;10451182;28;19928;-63
2021/04/28 12:14:24;;;;;;;;;;;19.10;43.20;;;;;;10451839;28;19932;-63
2021/04/28 12:19:26;;;;;;;;;;;18.90;41.30;;;;;;10449966;28;19947;-63
2021/04/28 12:24:34;;;;;;;;;;;19.10;42.20;;;;;;10425899;28;20012;-63
2021/04/28 12:29:40;;;;;;;;;;;19.30;40.00;;;;;;10449148;28;20281;-63
2021/04/28 12:34:43;;;;;;;;;;;19.40;39.20;;;;;;10470968;28;20348;-62
2021/04/28 12:39:49;;;;;;;;;;;19.60;40.30;;;;;;10456177;28;19932;-63
2021/04/28 12:44:50;;;;;;;;;;;19.60;39.00;;;;;;10450611;28;19928;-63
2021/04/28 12:50:09;;;;;;;;;;;19.60;40.60;;;;;;10449130;28;20454;-63
2021/04/28 12:55:26;;;;;;;;;;;20.10;36.40;;;;;;10450768;28;20023;-62
2021/04/28 13:00:31;;;;;;;;;;;20.40;34.70;;;;;;10458316;28;19976;-63
2021/04/28 13:05:36;;;;;;;;;;;20.50;33.90;;;;;;10449633;28;19990;-63
2021/04/28 13:10:37;;;;;;;;;;;20.40;33.40;;;;;;10450465;28;20019;-62
2021/04/28 13:15:39;;;;;;;;;;;20.20;33.10;;;;;;10473853;28;20380;-62
2021/04/28 13:20:40;;;;;;;;;;;20.20;31.40;;;;;;10451446;28;19925;-63
2021/04/28 13:25:48;;;;;;;;;;;20.20;32.10;;;;;;10443868;28;20042;-63
2021/04/28 13:30:49;;;;;;;;;;;20.60;32.40;;;;;;10431240;28;20027;-63
2021/04/28 13:35:50;;;;;;;;;;;20.80;31.30;;;;;;10424681;28;19925;-63
2021/04/28 13:40:51;;;;;;;;;;;20.70;31.40;;;;;;10423743;28;20405;-63
2021/04/28 13:45:53;;;;;;;;;;;20.70;31.10;;;;;;10424946;28;20468;-63
2021/04/28 13:50:54;;;;;;;;;;;20.80;31.70;;;;;;10432995;28;19925;-63
2021/04/28 13:55:56;;;;;;;;;;;20.60;33.60;;;;;;10448082;28;19924;-63
2021/04/28 14:00:57;;;;;;;;;;;20.60;32.30;;;;;;10447933;28;20361;-63
2021/04/28 14:05:58;;;;;;;;;;;20.70;30.80;;;;;;10455669;28;20201;-63
2021/04/28 14:11:00;;;;;;;;;;;21.00;31.60;;;;;;10448182;28;19998;-63
2021/04/28 14:16:01;;;;;;;;;;;21.10;30.90;;;;;;10443090;28;20396;-63
2021/04/28 14:21:03;;;;;;;;;;;21.00;30.80;;;;;;10447418;28;20035;-63
2021/04/28 14:26:05;;;;;;;;;;;21.00;29.80;;;;;;10448114;28;20431;-63
2021/04/28 14:31:07;;;;;;;;;;;20.70;29.30;;;;;;10447253;28;19925;-63
2021/04/28 14:36:08;;;;;;;;;;;20.70;29.00;;;;;;10446429;28;20403;-63
2021/04/28 14:41:09;;;;;;;;;;;20.90;28.80;;;;;;10446257;28;20413;-63
2021/04/28 14:46:10;;;;;;;;;;;21.30;28.40;;;;;;10447068;28;20019;-63
2021/04/28 14:51:15;;;;;;;;;;;21.50;28.40;;;;;;10443767;28;19937;-63
2021/04/28 14:56:16;;;;;;;;;;;21.30;28.50;;;;;;10447599;28;20011;-63
2021/04/28 15:01:17;;;;;;;;;;;21.60;28.10;;;;;;10445961;28;20342;-63
2021/04/28 15:06:19;;;;;;;;;;;21.50;29.30;;;;;;10446882;28;19939;-63
2021/04/28 15:11:20;;;;;;;;;;;21.00;29.60;;;;;;10446360;28;19956;-63
2021/04/28 15:16:22;;;;;;;;;;;20.80;29.90;;;;;;10445645;28;20273;-63
2021/04/28 15:21:23;;;;;;;;;;;20.60;30.20;;;;;;10445547;28;19925;-63
2021/04/28 15:26:24;;;;;;;;;;;20.60;30.30;;;;;;10445725;28;19963;-63
2021/04/28 15:31:26;;;;;;;;;;;20.60;30.60;;;;;;10445316;28;19932;-63
2021/04/28 15:36:35;;;;;;;;;;;20.50;30.70;;;;;;10444271;28;19924;-63
2021/04/28 15:41:36;;;;;;;;;;;20.50;30.40;;;;;;10446028;28;19950;-63
2021/04/28 15:46:38;;;;;;;;;;;20.50;30.00;;;;;;10444317;28;20012;-63
2021/04/28 15:51:39;;;;;;;;;;;20.30;30.40;;;;;;10445465;28;20007;-63
2021/04/28 15:56:40;;;;;;;;;;;20.30;29.80;;;;;;10445918;28;19968;-63
2021/04/28 16:01:42;;;;;;;;;;;20.30;30.10;;;;;;10443892;28;20459;-63
2021/04/28 16:06:43;;;;;;;;;;;20.10;30.90;;;;;;10444250;28;20344;-62
2021/04/28 16:11:44;;;;;;;;;;;20.00;31.10;;;;;;10443591;28;19925;-63
2021/04/28 16:16:46;;;;;;;;;;;19.90;31.60;;;;;;10441615;28;19931;-63
2021/04/28 16:21:47;;;;;;;;;;;19.80;31.90;;;;;;10444130;28;19998;-63
2021/04/28 16:26:48;;;;;;;;;;;19.50;32.70;;;;;;10444886;28;20015;-63
2021/04/28 16:31:50;;;;;;;;;;;19.50;34.00;;;;;;10444504;28;20023;-63
2021/04/28 16:36:51;;;;;;;;;;;19.60;33.50;;;;;;10446954;28;19928;-62
2021/04/28 16:41:52;;;;;;;;;;;19.50;33.70;;;;;;10452909;28;19931;-62
2021/04/28 16:46:54;;;;;;;;;;;19.50;33.70;;;;;;10479810;28;19982;-62
2021/04/28 16:51:56;;;;;;;;;;;19.40;35.00;;;;;;10468961;28;20300;-61
2021/04/28 16:56:58;;;;;;;;;;;19.30;35.60;;;;;;10478417;28;20007;-61
2021/04/28 17:01:59;;;;;;;;;;;19.00;35.70;;;;;;10462380;28;20423;-62
2021/04/28 17:07:01;;;;;;;;;;;18.60;38.00;;;;;;10450681;28;19925;-62
2021/04/28 17:12:02;;;;;;;;;;;18.20;37.60;;;;;;10449015;28;20284;-62
2021/04/28 17:17:05;;;;;;;;;;;17.90;41.00;;;;;;10446359;28;19935;-62
2021/04/28 17:22:10;;;;;;;;;;;17.60;41.10;;;;;;10443212;28;20399;-62
2021/04/28 17:27:14;;;;;;;;;;;17.50;41.30;;;;;;10437549;28;19936;-62
2021/04/28 17:32:24;;;;;;;;;;;17.20;42.70;;;;;;10442503;28;20006;-62
2021/04/28 17:37:25;;;;;;;;;;;16.90;41.90;;;;;;10449171;28;19976;-62
2021/04/28 17:42:27;;;;;;;;;;;17.00;43.00;;;;;;10437709;28;19925;-62
2021/04/28 17:47:28;;;;;;;;;;;16.70;43.80;;;;;;10442142;28;19972;-62
2021/04/28 17:52:29;;;;;;;;;;;16.70;43.80;;;;;;10451573;28;19972;-62
2021/04/28 17:57:31;;;;;;;;;;;16.60;44.00;;;;;;10448330;28;19975;-62
2021/04/28 18:02:33;;;;;;;;;;;16.40;47.70;;;;;;10446482;28;20023;-62
2021/04/28 18:07:34;;;;;;;;;;;16.10;49.00;;;;;;10447293;28;19928;-62
2021/04/28 18:12:36;;;;;;;;;;;16.00;49.40;;;;;;10445545;28;19924;-62
2021/04/28 18:17:38;;;;;;;;;;;15.90;50.10;;;;;;10444727;28;19971;-62
2021/04/28 18:22:41;;;;;;;;;;;15.80;50.10;;;;;;10445258;28;20018;-62
2021/04/28 18:27:42;;;;;;;;;;;15.80;49.90;;;;;;10445812;28;19960;-70
2021/04/28 18:32:44;;;;;;;;;;;15.60;51.60;;;;;;10447046;28;19960;-70
2021/04/28 18:37:45;;;;;;;;;;;15.40;54.30;;;;;;10433245;28;20019;-70
2021/04/28 18:42:47;;;;;;;;;;;15.00;55.60;;;;;;10433543;28;19964;-70
2021/04/28 18:47:49;;;;;;;;;;;14.90;57.00;;;;;;10442945;28;20028;-70
2021/04/28 18:52:53;;;;;;;;;;;14.60;57.20;;;;;;10467929;28;19968;-71
2021/04/28 18:57:54;;;;;;;;;;;14.50;60.20;;;;;;10462353;28;19925;-71
2021/04/28 19:02:56;;;;;;;;;;;14.40;63.90;;;;;;10466218;28;20015;-70
2021/04/28 19:07:57;;;;;;;;;;;14.20;68.40;;;;;;10473011;28;19972;-71
2021/04/28 19:12:58;;;;;;;;;;;14.10;77.00;;;;;;10475278;28;19929;-70
2021/04/28 19:18:00;;;;;;;;;;;13.80;92.20;;;;;;10455211;28;20371;-70
2021/04/28 19:23:01;;;;;;;;;;;13.60;99.90;;;;;;10459092;28;19932;-70
2021/04/28 19:28:03;;;;;;;;;;;13.40;99.90;;;;;;10455369;28;20312;-70
2021/04/28 19:33:04;;;;;;;;;;;13.10;99.90;;;;;;10462329;28;20075;-70
2021/04/28 19:38:06;;;;;;;;;;;12.90;99.90;;;;;;10477523;28;19925;-70
2021/04/28 19:43:07;;;;;;;;;;;12.80;99.90;;;;;;10454386;28;20019;-70
2021/04/28 19:48:09;;;;;;;;;;;12.60;99.90;;;;;;10449988;28;19964;-71
2021/04/28 19:53:10;;;;;;;;;;;12.60;99.90;;;;;;10465562;28;19963;-71
2021/04/28 19:58:11;;;;;;;;;;;12.50;99.90;;;;;;10466309;28;20035;-71
2021/04/28 20:03:12;;;;;;;;;;;12.40;99.90;;;;;;10468553;28;20278;-71
2021/04/28 20:08:14;;;;;;;;;;;12.30;99.90;;;;;;10464465;28;19959;-71
2021/04/28 20:13:15;;;;;;;;;;;12.30;99.90;;;;;;10485782;28;19924;-70
2021/04/28 20:18:17;;;;;;;;;;;12.20;99.90;;;;;;10481860;28;19993;-71
2021/04/28 20:23:18;;;;;;;;;;;11.90;99.90;;;;;;10458319;28;19998;-70
2021/04/28 20:28:21;;;;;;;;;;;11.80;99.90;;;;;;10476966;28;19925;-70
2021/04/28 20:33:22;;;;;;;;;;;12.00;99.90;;;;;;10465332;28;20017;-71
2021/04/28 20:38:25;;;;;;;;;;;12.10;99.90;;;;;;10475412;28;19928;-70
2021/04/28 20:43:27;;;;;;;;;;;12.10;99.90;;;;;;10483224;28;19971;-70
2021/04/28 20:48:28;;;;;;;;;;;12.00;99.90;;;;;;10476044;28;20368;-71
2021/04/28 20:53:33;;;;;;;;;;;11.80;99.90;;;;;;10485309;28;20448;-71
2021/04/28 20:58:34;;;;;;;;;;;11.60;99.90;;;;;;10465793;28;19928;-71
2021/04/28 21:03:36;;;;;;;;;;;11.30;99.90;;;;;;10481578;28;20008;-70
2021/04/28 21:08:37;;;;;;;;;;;11.40;99.90;;;;;;10470270;28;19964;-70
2021/04/28 21:13:39;;;;;;;;;;;11.60;99.90;;;;;;10458335;28;20426;-70
2021/04/28 21:18:40;;;;;;;;;;;11.60;99.90;;;;;;10460381;28;20023;-70
2021/04/28 21:23:41;;;;;;;;;;;11.70;99.90;;;;;;10458557;28;20192;-70
2021/04/28 21:28:43;;;;;;;;;;;11.50;99.90;;;;;;10477752;28;19960;-70
2021/04/28 21:33:44;;;;;;;;;;;11.30;99.90;;;;;;10475662;28;19925;-70
2021/04/28 21:38:45;;;;;;;;;;;11.50;99.90;;;;;;10451866;28;19928;-70
2021/04/28 21:43:47;;;;;;;;;;;11.50;99.90;;;;;;10458662;28;20399;-70
2021/04/28 21:48:48;;;;;;;;;;;11.60;99.90;;;;;;10464236;28;20027;-70
2021/04/28 21:53:55;;;;;;;;;;;11.60;99.90;;;;;;10446561;28;20017;-71
2021/04/28 21:58:56;;;;;;;;;;;11.70;99.90;;;;;;10445702;28;20016;-70
2021/04/28 22:03:58;;;;;;;;;;;11.40;99.90;;;;;;10467143;28;19960;-70
2021/04/28 22:08:59;;;;;;;;;;;11.50;99.90;;;;;;10463710;28;20023;-70
2021/04/28 22:14:01;;;;;;;;;;;11.40;99.90;;;;;;10459782;28;20382;-70
2021/04/28 22:19:03;;;;;;;;;;;11.40;99.90;;;;;;10463884;28;20443;-71
2021/04/28 22:24:04;;;;;;;;;;;11.10;99.90;;;;;;10456464;28;19925;-70
2021/04/28 22:29:06;;;;;;;;;;;11.20;99.90;;;;;;10472332;28;20021;-70
2021/04/28 22:34:07;;;;;;;;;;;11.30;99.90;;;;;;10464503;28;19976;-70
2021/04/28 22:39:08;;;;;;;;;;;11.30;99.90;;;;;;10457328;28;20379;-70
2021/04/28 22:44:10;;;;;;;;;;;11.20;99.90;;;;;;10449405;28;20019;-70
2021/04/28 22:49:11;;;;;;;;;;;11.10;99.90;;;;;;10472524;28;19983;-70
2021/04/28 22:54:14;;;;;;;;;;;11.00;99.90;;;;;;10474352;28;19933;-70
2021/04/28 22:59:15;;;;;;;;;;;11.00;99.90;;;;;;10455772;28;19925;-70
2021/04/28 23:04:17;;;;;;;;;;;11.00;99.90;;;;;;10468516;28;19978;-70
2021/04/28 23:09:18;;;;;;;;;;;10.90;99.90;;;;;;10446016;28;19968;-70
2021/04/28 23:14:19;;;;;;;;;;;10.90;99.90;;;;;;10458246;28;19982;-70
2021/04/28 23:19:21;;;;;;;;;;;10.90;99.90;;;;;;10468442;28;20027;-70
2021/04/28 23:24:22;;;;;;;;;;;10.80;99.90;;;;;;10445260;28;20424;-70
2021/04/28 23:29:23;;;;;;;;;;;10.70;99.90;;;;;;10452158;28;20444;-70
2021/04/28 23:34:24;;;;;;;;;;;10.80;99.90;;;;;;10466780;28;19967;-70
2021/04/28 23:39:26;;;;;;;;;;;10.70;99.90;;;;;;10450512;28;20007;-70
2021/04/28 23:44:27;;;;;;;;;;;10.60;99.90;;;;;;10447586;28;20011;-71
2021/04/28 23:49:29;;;;;;;;;;;10.60;99.90;;;;;;10457456;28;19932;-71
2021/04/28 23:54:31;;;;;;;;;;;10.50;99.90;;;;;;10458450;28;20032;-70
2021/04/28 23:59:32;;;;;;;;;;;10.40;99.90;;;;;;10465295;28;19929;-70
